createdAt,value
2019-05-14T00:00:02.557Z,0
2019-05-14T00:05:02.709Z,0
2019-05-14T00:10:03.275Z,0
2019-05-14T00:15:02.699Z,0
2019-05-14T00:20:09.721Z,0
2019-05-14T00:25:02.541Z,0
2019-05-14T00:30:03.004Z,0
2019-05-14T00:35:02.526Z,0
2019-05-14T00:40:02.158Z,0
2019-05-14T00:45:02.679Z,0
2019-05-14T00:50:03.210Z,0
2019-05-14T00:55:02.737Z,0
2019-05-14T01:00:03.286Z,0
2019-05-14T01:05:02.810Z,0
2019-05-14T01:10:03.373Z,0
2019-05-14T01:15:10.179Z,0
2019-05-14T01:20:03.266Z,0
2019-05-14T01:25:02.843Z,0
2019-05-14T01:30:03.390Z,0
2019-05-14T01:35:02.905Z,0
2019-05-14T01:40:03.452Z,0
2019-05-14T01:45:02.979Z,0
2019-05-14T01:50:02.512Z,0
2019-05-14T01:55:03.045Z,0
2019-05-14T02:00:02.572Z,0
2019-05-14T02:05:03.011Z,0
2019-05-14T02:10:02.466Z,0
2019-05-14T02:15:02.968Z,0
2019-05-14T02:20:02.571Z,0
2019-05-14T02:25:03.011Z,0
2019-05-14T02:30:02.534Z,0
2019-05-14T02:35:03.111Z,0
2019-05-14T02:40:02.640Z,0
2019-05-14T02:45:03.218Z,0
2019-05-14T02:50:02.809Z,0
2019-05-14T02:55:03.385Z,0
2019-05-14T03:00:02.872Z,1
2019-05-14T03:05:03.422Z,2
2019-05-14T03:10:02.206Z,4
2019-05-14T03:15:01.895Z,9
2019-05-14T03:20:03.446Z,19
2019-05-14T03:25:02.911Z,40
2019-05-14T03:30:03.411Z,56
2019-05-14T03:35:04.632Z,69
2019-05-14T03:40:03.385Z,80
2019-05-14T03:45:02.826Z,89
2019-05-14T03:50:03.312Z,194
2019-05-14T03:55:04.867Z,278
2019-05-14T04:00:02.553Z,322
2019-05-14T04:05:03.023Z,386
2019-05-14T04:10:02.538Z,455
2019-05-14T04:15:03.071Z,586
2019-05-14T04:20:02.587Z,577
2019-05-14T04:25:03.021Z,704
2019-05-14T04:30:03.315Z,756
2019-05-14T04:35:02.777Z,789
2019-05-14T04:40:03.327Z,873
2019-05-14T04:45:05.688Z,957
2019-05-14T04:50:02.582Z,980
2019-05-14T04:55:03.019Z,1000
2019-05-14T05:00:02.580Z,1000
2019-05-14T05:05:03.131Z,1000
2019-05-14T05:10:02.585Z,1000
2019-05-14T05:15:03.087Z,2000
2019-05-14T05:20:02.581Z,2000
2019-05-14T05:25:03.025Z,2000
2019-05-14T05:30:02.466Z,2000
2019-05-14T05:36:09.511Z,2000
2019-05-14T05:40:03.104Z,2000
2019-05-14T05:45:34.108Z,2000
2019-05-14T05:50:02.571Z,2000
2019-05-14T05:55:03.018Z,2000
2019-05-14T06:00:02.556Z,2000
2019-05-14T06:05:02.986Z,2000
2019-05-14T06:10:02.820Z,2000
2019-05-14T06:15:03.256Z,2000
2019-05-14T06:20:02.845Z,2000
2019-05-14T06:25:03.323Z,2000
2019-05-14T06:30:02.786Z,2000
2019-05-14T06:35:03.244Z,3000
2019-05-14T06:40:02.737Z,3000
2019-05-14T06:45:03.181Z,4000
2019-05-14T06:50:02.701Z,4000
2019-05-14T06:55:03.217Z,5000
2019-05-14T07:00:02.771Z,5000
2019-05-14T07:05:03.291Z,5000
2019-05-14T07:10:02.835Z,6000
2019-05-14T07:15:03.348Z,6000
2019-05-14T07:20:02.872Z,7000
2019-05-14T07:25:03.409Z,6000
2019-05-14T07:30:02.864Z,7000
2019-05-14T07:35:03.376Z,8000
2019-05-14T07:40:02.902Z,8000
2019-05-14T07:45:03.345Z,7000
2019-05-14T07:50:10.055Z,6000
2019-05-14T07:55:02.589Z,6000
2019-05-14T08:00:03.198Z,5000
2019-05-14T08:05:02.679Z,4000
2019-05-14T08:10:03.205Z,4000
2019-05-14T08:20:03.282Z,35000
2019-05-14T08:25:02.714Z,35000
2019-05-14T08:30:03.237Z,34000
2019-05-14T08:35:02.764Z,36000
2019-05-14T08:40:03.211Z,17000
2019-05-14T08:45:04.799Z,34000
2019-05-14T08:50:01.599Z,43000
2019-05-14T08:55:09.371Z,43000
2019-05-14T09:00:02.653Z,16000
2019-05-14T09:05:04.723Z,12000
2019-05-14T09:10:02.589Z,9000
2019-05-14T09:15:02.233Z,34000
2019-05-14T09:20:06.763Z,41000
2019-05-14T09:25:02.777Z,18000
2019-05-14T09:30:03.235Z,48000
2019-05-14T09:35:02.752Z,35000
2019-05-14T09:40:03.296Z,24000
2019-05-14T09:45:02.833Z,10000
2019-05-14T09:50:18.357Z,56000
2019-05-14T09:55:02.694Z,45000
2019-05-14T10:00:03.216Z,47000
2019-05-14T10:05:02.642Z,49000
2019-05-14T10:10:03.186Z,48000
2019-05-14T10:15:02.716Z,53000
2019-05-14T10:20:03.158Z,45000
2019-05-14T10:25:02.645Z,43000
2019-05-14T10:30:03.111Z,41000
2019-05-14T10:35:02.634Z,43000
2019-05-14T10:40:03.078Z,35000
2019-05-14T10:45:02.609Z,45000
2019-05-14T10:50:03.179Z,42000
2019-05-14T10:55:02.678Z,47000
2019-05-14T11:00:03.214Z,51000
2019-05-14T11:05:02.736Z,50000
2019-05-14T11:10:03.187Z,49000
2019-05-14T11:15:02.698Z,12000
2019-05-14T11:20:03.146Z,35000
2019-05-14T11:27:12.412Z,47000
2019-05-14T11:30:02.898Z,44000
2019-05-14T11:35:03.386Z,47000
2019-05-14T11:40:02.834Z,44000
2019-05-14T11:45:03.446Z,41000
2019-05-14T11:50:02.945Z,21000
2019-05-14T11:55:02.453Z,40000
2019-05-14T12:00:02.895Z,15000
2019-05-14T12:05:03.478Z,37000
2019-05-14T12:10:02.959Z,39000
2019-05-14T12:15:03.530Z,43000
2019-05-14T12:20:03.025Z,40000
2019-05-14T12:25:02.547Z,38000
2019-05-14T12:30:03.012Z,14000
2019-05-14T12:36:09.768Z,6000
2019-05-14T12:40:02.742Z,30000
2019-05-14T12:45:03.221Z,36000
2019-05-14T12:50:02.720Z,33000
2019-05-14T12:55:03.164Z,34000
2019-05-14T13:00:02.599Z,38000
2019-05-14T13:05:03.126Z,36000
2019-05-14T13:10:02.638Z,35000
2019-05-14T13:15:03.189Z,33000
2019-05-14T13:20:02.687Z,32000
2019-05-14T13:25:03.154Z,32000
2019-05-14T13:30:02.664Z,32000
2019-05-14T13:35:02.303Z,31000
2019-05-14T13:40:02.831Z,31000
2019-05-14T13:45:03.327Z,29000
2019-05-14T13:50:02.762Z,28000
2019-05-14T13:55:03.249Z,26000
2019-05-14T14:00:02.774Z,26000
2019-05-14T14:05:03.308Z,26000
2019-05-14T14:10:02.828Z,26000
2019-05-14T14:15:03.256Z,24000
2019-05-14T14:20:02.791Z,22000
2019-05-14T14:25:03.383Z,20000
2019-05-14T14:30:02.845Z,20000
2019-05-14T14:35:03.365Z,20000
2019-05-14T14:40:02.928Z,18000
2019-05-14T14:45:03.510Z,18000
2019-05-14T14:50:03.019Z,13000
2019-05-14T14:55:02.435Z,15000
2019-05-14T15:00:02.947Z,16000
2019-05-14T15:05:08.674Z,19000
2019-05-14T15:10:02.939Z,17000
2019-05-14T15:15:03.484Z,17000
2019-05-14T15:20:03.009Z,17000
2019-05-14T15:25:02.533Z,15000
2019-05-14T15:30:02.982Z,16000
2019-05-14T15:35:02.472Z,15000
2019-05-14T15:40:04.163Z,14000
2019-05-14T15:45:02.891Z,13000
2019-05-14T15:50:03.426Z,12000
2019-05-14T15:55:02.910Z,13000
2019-05-14T16:00:03.489Z,13000
2019-05-14T16:05:02.972Z,13000
2019-05-14T16:10:02.494Z,12000
2019-05-14T16:15:03.034Z,12000
2019-05-14T16:20:02.591Z,10000
2019-05-14T16:25:03.116Z,11000
2019-05-14T16:30:02.676Z,11000
2019-05-14T16:35:03.194Z,12000
2019-05-14T16:40:02.695Z,11000
2019-05-14T16:45:03.234Z,12000
2019-05-14T16:50:02.784Z,11000
2019-05-14T16:55:20.459Z,11000
2019-05-14T17:00:03.147Z,10000
2019-05-14T17:05:02.649Z,9000
2019-05-14T17:10:03.205Z,9000
2019-05-14T17:15:02.728Z,9000
2019-05-14T17:20:03.278Z,9000
2019-05-14T17:25:02.786Z,9000
2019-05-14T17:30:03.338Z,9000
2019-05-14T17:35:02.856Z,9000
2019-05-14T17:40:03.401Z,8000
2019-05-14T17:45:02.934Z,7000
2019-05-14T17:50:03.480Z,6000
2019-05-14T17:55:02.978Z,5000
2019-05-14T18:00:02.512Z,5000
2019-05-14T18:05:02.939Z,3000
2019-05-14T18:10:03.403Z,3000
2019-05-14T18:15:15.217Z,3000
2019-05-14T18:20:02.754Z,3000
2019-05-14T18:25:03.294Z,2000
2019-05-14T18:30:02.819Z,1000
2019-05-14T18:35:03.358Z,1000
2019-05-14T18:40:02.877Z,991
2019-05-14T18:45:03.329Z,863
2019-05-14T18:50:02.848Z,719
2019-05-14T18:55:03.397Z,673
2019-05-14T19:00:02.916Z,571
2019-05-14T19:05:03.386Z,464
2019-05-14T19:10:02.832Z,371
2019-05-14T19:15:03.317Z,267
2019-05-14T19:20:02.837Z,87
2019-05-14T19:25:02.576Z,66
2019-05-14T19:30:19.150Z,55
2019-05-14T19:35:02.834Z,41
2019-05-14T19:40:03.392Z,27
2019-05-14T19:45:02.915Z,14
2019-05-14T19:51:08.390Z,7
2019-05-14T19:55:02.881Z,2
2019-05-14T20:00:03.416Z,1
2019-05-14T20:05:05.492Z,0
2019-05-14T20:10:03.179Z,0
2019-05-14T20:15:02.717Z,0
2019-05-14T20:20:03.245Z,0
2019-05-14T20:25:02.744Z,0
2019-05-14T20:30:03.736Z,0
2019-05-14T20:35:03.243Z,0
2019-05-14T20:40:01.888Z,0
2019-05-14T20:45:03.517Z,0
2019-05-14T20:50:03.058Z,0
2019-05-14T20:55:02.554Z,0
2019-05-14T21:00:03.130Z,0
2019-05-14T21:05:04.890Z,0
2019-05-14T21:10:02.901Z,0
2019-05-14T21:15:03.447Z,0
2019-05-14T21:20:02.956Z,0
2019-05-14T21:25:02.441Z,0
2019-05-14T21:30:03.024Z,0
2019-05-14T21:35:01.735Z,0
2019-05-14T21:40:03.332Z,0
2019-05-14T21:45:02.916Z,0
2019-05-14T21:50:03.510Z,0
2019-05-14T21:55:03.124Z,0
2019-05-14T22:00:02.618Z,0
2019-05-14T22:05:03.167Z,0
2019-05-14T22:10:02.701Z,0
2019-05-14T22:15:03.222Z,0
2019-05-14T22:20:02.755Z,0
2019-05-14T22:25:03.305Z,0
2019-05-14T22:30:02.771Z,0
2019-05-14T22:35:03.257Z,0
2019-05-14T22:40:02.798Z,0
2019-05-14T22:45:03.332Z,0
2019-05-14T22:50:02.852Z,0
2019-05-14T22:55:03.388Z,0
2019-05-14T23:00:07.554Z,0
2019-05-14T23:05:03.151Z,0
2019-05-14T23:10:02.672Z,0
2019-05-14T23:15:03.223Z,0
2019-05-14T23:20:02.743Z,0
2019-05-14T23:25:03.303Z,0
2019-05-14T23:30:02.803Z,0
2019-05-14T23:35:03.363Z,0
2019-05-14T23:40:02.891Z,0
2019-05-14T23:45:03.380Z,0
2019-05-14T23:50:02.947Z,0
2019-05-14T23:55:03.493Z,0
